Time;durP1;ratioP1;P1;durP2;ratioP2;P2;SDS_P1;SDS_P2;PMS_P1;PMS_P2;Temp;Humidity;BMP_temperature;BMP_pressure;BME280_temperature;BME280_humidity;BME280_pressure;Samples;Min_cycle;Max_cycle;Signal;HPM_P1;HPM_P2
2023/02/19 00:01:11;;;;;;;4.35;1.90;;;21.60;44.10;;;;;;5054713;28;20870;-55
2023/02/19 00:03:38;;;;;;;5.72;2.28;;;21.60;44.10;;;;;;5053199;28;20033;-55
2023/02/19 00:06:06;;;;;;;4.95;2.22;;;21.60;44.10;;;;;;5055981;28;20017;-53
2023/02/19 00:08:33;;;;;;;4.82;2.10;;;21.60;44.20;;;;;;5056889;28;20047;-53
2023/02/19 00:11:04;;;;;;;6.50;2.53;;;21.60;44.30;;;;;;5060218;28;20025;-56
2023/02/19 00:13:30;;;;;;;5.30;2.40;;;21.60;44.20;;;;;;5036717;28;20036;-54
2023/02/19 00:15:56;;;;;;;5.15;2.25;;;21.60;44.20;;;;;;5053063;28;20051;-54
2023/02/19 00:18:25;;;;;;;6.13;2.45;;;21.60;44.20;;;;;;5053478;28;20032;-53
2023/02/19 00:20:51;;;;;;;5.30;2.53;;;21.50;44.20;;;;;;5056028;28;20472;-54
2023/02/19 00:23:16;;;;;;;5.13;1.92;;;21.60;44.30;;;;;;5054465;28;20024;-54
2023/02/19 00:25:42;;;;;;;3.97;2.00;;;21.50;44.20;;;;;;5056605;28;20068;-53
2023/02/19 00:28:08;;;;;;;5.03;2.20;;;21.50;44.20;;;;;;5058176;28;20448;-54
2023/02/19 00:30:34;;;;;;;5.45;2.30;;;21.50;44.20;;;;;;5062363;28;20021;-54
2023/02/19 00:33:00;;;;;;;4.78;2.28;;;21.50;44.30;;;;;;5057443;28;20140;-55
2023/02/19 00:35:25;;;;;;;4.40;1.92;;;21.50;44.30;;;;;;5059033;28;20108;-54
2023/02/19 00:37:51;;;;;;;4.20;1.70;;;21.50;44.30;;;;;;5056715;28;20347;-55
2023/02/19 00:40:17;;;;;;;5.43;2.15;;;21.50;44.30;;;;;;5060516;28;20036;-55
2023/02/19 00:42:43;;;;;;;5.10;1.65;;;21.50;44.30;;;;;;5058345;28;20090;-53
2023/02/19 00:45:09;;;;;;;4.60;2.35;;;21.50;44.30;;;;;;5060774;28;20056;-55
2023/02/19 00:47:34;;;;;;;4.50;1.92;;;21.50;44.30;;;;;;5060486;28;20021;-53
2023/02/19 00:50:00;;;;;;;3.78;2.05;;;21.50;44.30;;;;;;5056847;28;20449;-54
2023/02/19 00:52:26;;;;;;;4.63;1.85;;;21.50;44.40;;;;;;5058615;28;20502;-57
2023/02/19 00:54:52;;;;;;;5.63;2.20;;;21.50;44.50;;;;;;5057103;28;20060;-53
2023/02/19 00:57:18;;;;;;;3.97;2.00;;;21.50;44.40;;;;;;5035662;28;20368;-55
2023/02/19 00:59:44;;;;;;;4.18;1.80;;;21.40;44.40;;;;;;5041886;28;20456;-54
2023/02/19 01:02:10;;;;;;;3.60;1.80;;;21.40;44.40;;;;;;5040169;28;20027;-55
2023/02/19 01:04:36;;;;;;;4.68;1.90;;;21.40;44.40;;;;;;5044198;28;21397;-52
2023/02/19 01:07:01;;;;;;;4.75;2.15;;;21.40;44.50;;;;;;5034413;28;20031;-55
2023/02/19 01:09:27;;;;;;;3.03;1.70;;;21.40;44.50;;;;;;5058862;28;20056;-55
2023/02/19 01:11:53;;;;;;;3.88;1.73;;;21.40;44.50;;;;;;5041342;28;20025;-54
2023/02/19 01:14:19;;;;;;;4.10;1.95;;;21.40;44.50;;;;;;5036111;28;20524;-55
2023/02/19 01:16:45;;;;;;;4.15;1.58;;;21.40;44.50;;;;;;5057195;28;20354;-52
2023/02/19 01:19:11;;;;;;;5.55;1.80;;;21.40;44.50;;;;;;5039216;28;20436;-55
2023/02/19 01:21:39;;;;;;;3.47;1.85;;;21.40;44.50;;;;;;5040371;28;20025;-52
2023/02/19 01:24:05;;;;;;;4.75;1.70;;;21.40;44.50;;;;;;5057519;28;20353;-51
2023/02/19 01:26:32;;;;;;;3.63;1.60;;;21.30;44.50;;;;;;5041650;28;20032;-54
2023/02/19 01:28:59;;;;;;;4.38;1.65;;;21.40;44.50;;;;;;5055924;28;20028;-53
2023/02/19 01:31:26;;;;;;;4.13;1.70;;;21.40;44.60;;;;;;5035931;28;20029;-55
2023/02/19 01:33:55;;;;;;;2.88;1.40;;;21.30;44.50;;;;;;5064430;28;20091;-55
2023/02/19 01:36:22;;;;;;;4.13;1.67;;;21.30;44.50;;;;;;5055161;28;20582;-55
2023/02/19 01:38:48;;;;;;;4.40;1.67;;;21.30;44.50;;;;;;5059131;28;20414;-54
2023/02/19 01:41:17;;;;;;;5.18;2.00;;;21.30;44.50;;;;;;5056152;28;20020;-55
2023/02/19 01:43:55;;;;;;;3.35;1.50;;;21.30;44.60;;;;;;5055894;28;20037;-55
2023/02/19 01:46:25;;;;;;;5.38;1.90;;;21.30;44.50;;;;;;5060758;28;20099;-55
2023/02/19 01:48:53;;;;;;;3.90;1.52;;;21.30;44.60;;;;;;5034867;28;21929;-55
2023/02/19 01:51:19;;;;;;;3.83;1.35;;;21.30;44.60;;;;;;5061342;28;20032;-54
2023/02/19 01:53:57;;;;;;;4.65;1.58;;;21.20;44.50;;;;;;5038920;28;20360;-50
2023/02/19 01:56:25;;;;;;;4.13;1.70;;;21.30;44.60;;;;;;5037092;28;20028;-53
2023/02/19 01:58:53;;;;;;;5.50;1.60;;;21.30;44.60;;;;;;5037155;28;20490;-51
2023/02/19 02:01:19;;;;;;;4.05;1.70;;;21.20;44.50;;;;;;5057086;28;20028;-54
2023/02/19 02:03:47;;;;;;;4.40;1.67;;;21.20;44.50;;;;;;5036844;28;20055;-53
2023/02/19 02:06:26;;;;;;;4.65;1.83;;;21.20;44.50;;;;;;5038593;28;20046;-54
2023/02/19 02:11:50;;;;;;;3.88;1.50;;;21.20;44.60;;;;;;5036458;28;20036;-54
2023/02/19 02:14:20;;;;;;;5.47;1.98;;;21.20;44.60;;;;;;5059377;28;20430;-55
2023/02/19 02:17:16;;;;;;;4.25;1.60;;;21.20;44.60;;;;;;5051795;28;20419;-55
2023/02/19 02:20:14;;;;;;;3.88;1.42;;;21.20;44.50;;;;;;5061059;28;20094;-55
2023/02/19 02:23:19;;;;;;;4.78;1.52;;;21.20;44.50;;;;;;5040214;28;20356;-56
2023/02/19 02:25:51;;;;;;;4.47;1.67;;;21.20;44.50;;;;;;5057824;28;20432;-54
2023/02/19 02:28:32;;;;;;;2.38;1.30;;;21.20;44.60;;;;;;5037008;28;20106;-54
2023/02/19 02:31:13;;;;;;;5.13;1.50;;;21.20;44.60;;;;;;5037361;28;20028;-53
2023/02/19 02:33:55;;;;;;;4.65;1.73;;;21.20;44.60;;;;;;5054097;28;20464;-53
2023/02/19 02:36:28;;;;;;;5.30;1.50;;;21.10;44.50;;;;;;5039979;28;20039;-53
2023/02/19 02:38:57;;;;;;;4.05;1.60;;;21.10;44.50;;;;;;5039200;28;20109;-54
2023/02/19 02:41:24;;;;;;;3.65;1.52;;;21.10;44.60;;;;;;5041782;28;20028;-55
2023/02/19 02:43:49;;;;;;;4.07;1.55;;;21.10;44.60;;;;;;5037904;28;20040;-53
2023/02/19 02:46:27;;;;;;;4.32;1.65;;;21.10;44.60;;;;;;5038360;28;20726;-52
2023/02/19 02:49:00;;;;;;;3.92;1.30;;;21.10;44.60;;;;;;5034785;28;20532;-53
2023/02/19 02:51:42;;;;;;;5.35;1.95;;;21.10;44.60;;;;;;5062004;28;20060;-51
2023/02/19 02:57:08;;;;;;;4.97;1.50;;;21.10;44.60;;;;;;5035156;28;20044;-53
2023/02/19 02:59:39;;;;;;;4.32;1.48;;;21.10;44.60;;;;;;5040761;28;20021;-51
2023/02/19 03:02:38;;;;;;;4.22;1.52;;;21.10;44.60;;;;;;5034158;28;20368;-54
2023/02/19 03:08:16;;;;;;;3.60;1.45;;;21.10;44.60;;;;;;5036734;28;20091;-50
2023/02/19 03:10:58;;;;;;;4.82;1.40;;;21.00;44.60;;;;;;5037449;28;20028;-53
2023/02/19 03:19:19;;;;;;;3.08;1.25;;;21.00;44.60;;;;;;5038277;28;20021;-53
2023/02/19 03:22:08;;;;;;;2.83;1.40;;;21.00;44.60;;;;;;5033303;28;20029;-52
2023/02/19 03:27:33;;;;;;;4.00;1.38;;;21.00;44.60;;;;;;5040169;28;20032;-52
2023/02/19 03:30:04;;;;;;;4.78;1.45;;;21.00;44.60;;;;;;5043036;28;20064;-48
2023/02/19 03:32:36;;;;;;;3.35;1.38;;;21.00;44.60;;;;;;5041059;28;20044;-54
2023/02/19 03:35:10;;;;;;;3.97;1.50;;;21.00;44.60;;;;;;5039114;28;20092;-53
2023/02/19 03:37:44;;;;;;;3.00;1.00;;;21.00;44.60;;;;;;5038680;28;20032;-55
2023/02/19 03:40:11;;;;;;;3.42;1.25;;;21.00;44.60;;;;;;5041550;28;20024;-53
2023/02/19 03:43:14;;;;;;;4.30;1.60;;;21.00;44.60;;;;;;5061272;28;20120;-51
2023/02/19 03:45:53;;;;;;;4.63;1.50;;;21.00;44.60;;;;;;5056692;28;21414;-54
2023/02/19 03:48:34;;;;;;;4.28;1.15;;;20.90;44.60;;;;;;5038396;28;20107;-55
2023/02/19 03:51:21;;;;;;;3.58;1.33;;;21.00;44.60;;;;;;5055102;28;20025;-53
2023/02/19 03:53:55;;;;;;;2.90;1.13;;;21.00;44.60;;;;;;5037509;28;20055;-53
2023/02/19 03:56:33;;;;;;;3.78;1.30;;;21.00;44.60;;;;;;5050130;28;20036;-52
2023/02/19 03:59:10;;;;;;;4.00;1.30;;;20.90;44.60;;;;;;5044397;28;20020;-54
2023/02/19 04:01:48;;;;;;;3.20;1.10;;;20.90;44.60;;;;;;5040617;28;20020;-56
2023/02/19 04:04:23;;;;;;;3.67;1.35;;;20.90;44.60;;;;;;5038972;28;20044;-55
2023/02/19 04:06:55;;;;;;;3.30;1.30;;;20.90;44.60;;;;;;5043623;28;20024;-52
2023/02/19 04:09:25;;;;;;;3.38;1.30;;;20.90;44.60;;;;;;5038601;28;20056;-54
2023/02/19 04:11:59;;;;;;;5.18;1.15;;;20.90;44.60;;;;;;5038553;28;20029;-55
2023/02/19 04:14:34;;;;;;;3.03;1.00;;;20.90;44.60;;;;;;5037543;28;20425;-54
2023/02/19 04:17:07;;;;;;;4.40;1.17;;;20.90;44.60;;;;;;5059458;28;20448;-55
2023/02/19 04:19:36;;;;;;;3.00;1.00;;;20.90;44.70;;;;;;5059268;28;20025;-53
2023/02/19 04:22:05;;;;;;;2.90;1.10;;;20.90;44.60;;;;;;5059879;28;20040;-54
2023/02/19 04:24:36;;;;;;;3.08;0.93;;;20.90;44.60;;;;;;5059670;28;20024;-55
2023/02/19 04:27:03;;;;;;;3.00;1.20;;;20.90;44.60;;;;;;5058690;28;20025;-53
2023/02/19 04:29:29;;;;;;;3.08;1.10;;;20.90;44.60;;;;;;5064513;28;20113;-54
2023/02/19 04:31:55;;;;;;;3.22;1.10;;;20.90;44.60;;;;;;5058367;28;20523;-52
2023/02/19 04:34:21;;;;;;;2.72;1.10;;;20.90;44.60;;;;;;5057856;28;20044;-52
2023/02/19 04:36:46;;;;;;;3.47;1.10;;;20.90;44.60;;;;;;5058784;28;20048;-54
2023/02/19 04:39:12;;;;;;;3.08;0.70;;;20.80;44.50;;;;;;5061872;28;20063;-53
2023/02/19 04:41:38;;;;;;;2.42;1.10;;;20.90;44.60;;;;;;5059759;28;20032;-54
2023/02/19 04:44:04;;;;;;;2.25;0.70;;;20.80;44.50;;;;;;5057289;28;20098;-55
2023/02/19 04:46:30;;;;;;;2.67;1.10;;;20.80;44.50;;;;;;5062142;28;20029;-54
2023/02/19 04:48:56;;;;;;;2.45;0.90;;;20.80;44.50;;;;;;5059484;28;20017;-54
2023/02/19 04:51:22;;;;;;;1.27;0.80;;;20.80;44.50;;;;;;5064166;28;20028;-50
2023/02/19 04:53:48;;;;;;;4.65;1.10;;;20.80;44.50;;;;;;5061807;28;20041;-53
2023/02/19 04:56:15;;;;;;;2.88;0.90;;;20.80;44.60;;;;;;5060758;28;20107;-55
2023/02/19 04:58:43;;;;;;;1.58;0.70;;;20.80;44.60;;;;;;5055661;28;20043;-56
2023/02/19 05:01:10;;;;;;;2.10;0.90;;;20.80;44.60;;;;;;5057915;28;20040;-54
2023/02/19 05:03:36;;;;;;;1.88;0.80;;;20.80;44.60;;;;;;5062652;28;20085;-54
2023/02/19 05:06:08;;;;;;;2.42;0.85;;;20.80;44.60;;;;;;5035441;28;20931;-52
2023/02/19 05:08:34;;;;;;;2.83;1.10;;;20.80;44.50;;;;;;5053489;28;20330;-54
2023/02/19 05:11:02;;;;;;;1.50;0.65;;;20.80;44.50;;;;;;5053072;28;20064;-54
2023/02/19 05:13:29;;;;;;;2.60;1.02;;;20.80;44.50;;;;;;5059717;28;21639;-52
2023/02/19 05:16:00;;;;;;;2.05;0.88;;;20.80;44.50;;;;;;5058274;28;20362;-55
2023/02/19 05:18:26;;;;;;;2.92;0.90;;;20.80;44.50;;;;;;5056445;28;20041;-55
2023/02/19 05:20:53;;;;;;;2.78;1.00;;;20.80;44.50;;;;;;5059296;28;20071;-50
2023/02/19 05:23:19;;;;;;;2.53;0.85;;;20.80;44.50;;;;;;5061504;28;20029;-49
2023/02/19 05:25:45;;;;;;;2.80;1.08;;;20.80;44.50;;;;;;5055552;28;20120;-56
2023/02/19 05:28:17;;;;;;;2.90;0.90;;;20.80;44.50;;;;;;5056408;28;20103;-52
2023/02/19 05:30:49;;;;;;;3.75;1.40;;;20.80;44.50;;;;;;5054248;28;20037;-53
2023/02/19 05:33:16;;;;;;;2.78;0.80;;;20.70;44.50;;;;;;5063370;28;20041;-53
2023/02/19 05:35:45;;;;;;;1.50;0.80;;;20.80;44.50;;;;;;5060528;28;20384;-55
2023/02/19 05:38:11;;;;;;;2.15;1.02;;;20.80;44.50;;;;;;5056424;28;20037;-54
2023/02/19 05:40:37;;;;;;;3.05;0.82;;;20.70;44.50;;;;;;5060110;28;20025;-54
2023/02/19 05:43:04;;;;;;;1.98;0.90;;;20.70;44.50;;;;;;5059893;28;20090;-52
2023/02/19 05:45:30;;;;;;;2.05;0.80;;;20.70;44.50;;;;;;5055289;28;20057;-49
2023/02/19 05:47:57;;;;;;;2.65;1.00;;;20.70;44.50;;;;;;5055319;28;20094;-48
2023/02/19 05:50:23;;;;;;;2.63;0.80;;;20.70;44.50;;;;;;5057151;28;20051;-52
2023/02/19 05:52:49;;;;;;;3.63;1.27;;;20.70;44.50;;;;;;5055254;28;20025;-48
2023/02/19 05:55:15;;;;;;;2.20;0.85;;;20.70;44.50;;;;;;5057185;28;20035;-51
2023/02/19 05:57:42;;;;;;;2.55;0.80;;;20.70;45.10;;;;;;5057370;28;20102;-52
2023/02/19 06:00:10;;;;;;;2.63;0.95;;;20.70;44.50;;;;;;5055867;28;20244;-51
2023/02/19 06:02:38;;;;;;;1.80;0.73;;;20.70;44.50;;;;;;5053650;28;20037;-50
2023/02/19 06:05:04;;;;;;;2.03;0.70;;;20.70;44.50;;;;;;5057935;28;20028;-53
2023/02/19 06:07:31;;;;;;;2.78;0.85;;;20.70;44.50;;;;;;5058027;28;20148;-54
2023/02/19 06:09:57;;;;;;;2.13;0.70;;;20.70;44.50;;;;;;5055918;28;20035;-53
2023/02/19 06:12:23;;;;;;;2.38;1.10;;;20.70;44.50;;;;;;5064013;28;20055;-50
2023/02/19 06:14:49;;;;;;;2.55;0.80;;;20.70;44.50;;;;;;5056688;28;20124;-48
2023/02/19 06:17:14;;;;;;;2.95;0.90;;;20.60;44.50;;;;;;5054904;28;20073;-52
2023/02/19 06:19:40;;;;;;;2.53;0.90;;;20.70;44.50;;;;;;5059620;28;20060;-53
2023/02/19 06:22:06;;;;;;;3.50;1.00;;;20.60;44.50;;;;;;5058558;28;20033;-50
2023/02/19 06:24:33;;;;;;;3.15;1.08;;;20.60;44.50;;;;;;5055610;28;20017;-52
2023/02/19 06:26:58;;;;;;;2.20;0.80;;;20.60;44.50;;;;;;5057321;28;20383;-55
2023/02/19 06:29:24;;;;;;;1.48;0.70;;;20.60;44.50;;;;;;5057529;28;20029;-54
2023/02/19 06:31:50;;;;;;;3.03;0.90;;;20.60;44.50;;;;;;5055544;28;20208;-49
2023/02/19 06:34:16;;;;;;;2.13;1.00;;;20.60;44.60;;;;;;5062506;28;20227;-50
2023/02/19 06:36:43;;;;;;;2.35;1.10;;;20.60;44.50;;;;;;5058248;28;20033;-53
2023/02/19 06:39:09;;;;;;;1.77;0.75;;;20.60;44.60;;;;;;5056669;28;20443;-51
2023/02/19 06:41:35;;;;;;;2.72;0.90;;;20.60;44.60;;;;;;5038421;28;20020;-52
2023/02/19 06:44:01;;;;;;;2.33;0.90;;;20.60;44.60;;;;;;5056998;28;20444;-53
2023/02/19 06:46:26;;;;;;;1.92;0.77;;;20.60;44.70;;;;;;5054896;28;20144;-53
2023/02/19 06:48:52;;;;;;;3.55;0.88;;;20.60;44.60;;;;;;5057188;28;20028;-52
2023/02/19 06:51:22;;;;;;;1.77;0.70;;;20.60;44.60;;;;;;5055620;28;20039;-50
2023/02/19 06:53:48;;;;;;;3.38;1.10;;;20.60;44.60;;;;;;5060161;28;20114;-54
2023/02/19 06:56:31;;;;;;;2.45;1.00;;;20.60;44.60;;;;;;5040618;28;20037;-54
2023/02/19 06:59:00;;;;;;;2.88;0.90;;;20.60;44.60;;;;;;5051605;28;20041;-52
2023/02/19 07:01:33;;;;;;;2.05;0.90;;;20.70;44.70;;;;;;5056059;28;20095;-52
2023/02/19 07:03:59;;;;;;;2.33;0.98;;;20.60;44.60;;;;;;5057314;28;20356;-51
2023/02/19 07:06:26;;;;;;;2.40;0.82;;;20.70;44.60;;;;;;5056955;28;20371;-53
2023/02/19 07:08:54;;;;;;;5.35;1.08;;;20.70;44.60;;;;;;5053968;28;20049;-53
2023/02/19 07:11:20;;;;;;;3.17;0.90;;;20.70;44.60;;;;;;5048595;28;20457;-54
2023/02/19 07:13:46;;;;;;;3.00;1.15;;;20.70;44.60;;;;;;5050877;28;20052;-54
2023/02/19 07:16:12;;;;;;;2.10;0.75;;;20.70;44.60;;;;;;5054957;28;20420;-53
2023/02/19 07:18:39;;;;;;;2.80;0.90;;;20.70;44.50;;;;;;5041218;28;20025;-52
2023/02/19 07:21:11;;;;;;;3.00;1.00;;;20.70;44.60;;;;;;5052399;28;20020;-51
2023/02/19 07:23:37;;;;;;;2.95;0.70;;;20.70;44.50;;;;;;5054526;28;20059;-52
2023/02/19 07:26:10;;;;;;;2.28;0.82;;;20.70;44.50;;;;;;5057360;28;20099;-54
2023/02/19 07:28:36;;;;;;;2.30;0.80;;;20.70;44.50;;;;;;5058440;28;20025;-52
2023/02/19 07:31:03;;;;;;;1.95;0.88;;;20.70;44.50;;;;;;5050985;28;20336;-53
2023/02/19 07:33:29;;;;;;;1.67;0.70;;;20.70;44.50;;;;;;5047776;28;20040;-54
2023/02/19 07:35:55;;;;;;;3.15;0.75;;;20.70;44.50;;;;;;5061987;28;20025;-54
2023/02/19 07:38:23;;;;;;;2.78;1.15;;;20.70;44.50;;;;;;5055981;28;21396;-53
2023/02/19 07:40:57;;;;;;;3.15;1.00;;;20.70;44.40;;;;;;5057887;28;20024;-53
2023/02/19 07:43:24;;;;;;;2.90;1.08;;;20.70;44.40;;;;;;5056297;28;20325;-49
2023/02/19 07:45:51;;;;;;;1.90;0.70;;;20.70;44.40;;;;;;5037232;28;20037;-55
2023/02/19 07:48:18;;;;;;;2.28;0.90;;;20.70;44.40;;;;;;5059140;28;20043;-54
2023/02/19 07:51:11;;;;;;;4.20;1.17;;;20.80;44.50;;;;;;5056869;28;20497;-53
2023/02/19 07:53:37;;;;;;;2.63;0.90;;;20.70;44.40;;;;;;5052448;28;20057;-49
2023/02/19 07:56:06;;;;;;;2.17;0.90;;;20.70;44.40;;;;;;5059328;28;20031;-51
2023/02/19 07:58:33;;;;;;;2.85;1.10;;;20.70;44.50;;;;;;5060412;28;20021;-52
2023/02/19 08:01:07;;;;;;;2.83;1.00;;;20.80;44.50;;;;;;5056023;28;20333;-53
2023/02/19 08:03:34;;;;;;;1.65;0.77;;;20.80;44.50;;;;;;5059925;28;20021;-52
2023/02/19 08:05:59;;;;;;;2.33;1.00;;;20.70;44.40;;;;;;5056089;28;20032;-51
2023/02/19 08:08:25;;;;;;;2.38;0.88;;;20.70;44.40;;;;;;5055069;28;20050;-54
2023/02/19 08:13:55;;;;;;;2.53;1.05;;;20.70;44.30;;;;;;4986951;28;20058;-53
2023/02/19 08:16:21;;;;;;;2.72;1.00;;;20.80;44.30;;;;;;4996226;28;20050;-50
2023/02/19 08:18:47;;;;;;;3.78;1.17;;;20.80;44.30;;;;;;5023693;28;20051;-52
2023/02/19 08:21:16;;;;;;;3.10;0.90;;;20.70;44.30;;;;;;5052249;28;20021;-54
2023/02/19 08:23:43;;;;;;;3.72;1.00;;;20.70;44.30;;;;;;5052052;28;20461;-55
2023/02/19 08:26:08;;;;;;;2.65;0.90;;;20.80;44.40;;;;;;5050920;28;20017;-54
2023/02/19 08:28:34;;;;;;;3.08;1.30;;;20.80;44.40;;;;;;5051593;28;20329;-55
2023/02/19 08:31:03;;;;;;;2.25;0.82;;;20.80;44.50;;;;;;5060666;28;20081;-52
2023/02/19 08:33:29;;;;;;;2.92;1.08;;;20.90;44.50;;;;;;5038252;28;20353;-53
2023/02/19 08:35:56;;;;;;;3.38;1.27;;;20.80;44.40;;;;;;5057721;28;20051;-51
2023/02/19 08:38:22;;;;;;;3.63;1.10;;;20.90;44.50;;;;;;5055123;28;20029;-54
2023/02/19 08:40:48;;;;;;;1.88;0.70;;;21.00;44.50;;;;;;5051934;28;20025;-54
2023/02/19 08:43:16;;;;;;;2.35;0.77;;;21.00;44.50;;;;;;5034951;28;20037;-52
2023/02/19 08:45:43;;;;;;;3.22;1.05;;;21.00;44.40;;;;;;5053045;28;20047;-49
2023/02/19 08:48:10;;;;;;;2.25;0.80;;;21.00;44.30;;;;;;5052312;28;20071;-51
2023/02/19 08:50:37;;;;;;;3.17;1.10;;;21.10;44.30;;;;;;5056146;28;20051;-49
2023/02/19 08:53:05;;;;;;;2.80;1.00;;;21.10;44.10;;;;;;5052651;28;20040;-52
2023/02/19 08:55:31;;;;;;;3.38;0.90;;;21.20;44.10;;;;;;5054034;28;20061;-54
2023/02/19 08:57:57;;;;;;;3.53;1.38;;;21.20;44.00;;;;;;5052671;28;20041;-54
2023/02/19 09:00:23;;;;;;;2.83;0.95;;;21.20;43.90;;;;;;5061309;28;20059;-54
2023/02/19 09:02:49;;;;;;;4.00;1.60;;;21.20;43.90;;;;;;5059464;28;20103;-54
2023/02/19 09:05:16;;;;;;;2.17;1.00;;;21.30;43.80;;;;;;5064416;28;20436;-53
2023/02/19 09:07:42;;;;;;;3.10;1.30;;;21.30;43.70;;;;;;5060605;28;20060;-53
2023/02/19 09:10:11;;;;;;;3.22;1.08;;;21.30;43.70;;;;;;5060484;28;20380;-53
2023/02/19 09:12:37;;;;;;;2.53;1.05;;;21.40;43.60;;;;;;5062215;28;21812;-56
2023/02/19 09:15:04;;;;;;;2.25;0.95;;;21.40;43.60;;;;;;5061173;28;20116;-54
2023/02/19 09:17:30;;;;;;;2.33;1.00;;;21.40;43.50;;;;;;5060633;28;20575;-52
2023/02/19 09:19:55;;;;;;;3.63;1.20;;;21.50;43.50;;;;;;5059185;28;20027;-54
2023/02/19 09:22:21;;;;;;;2.70;1.25;;;21.50;43.40;;;;;;5057280;28;20045;-54
2023/02/19 09:24:47;;;;;;;2.22;1.30;;;21.50;43.40;;;;;;5056217;28;20110;-49
2023/02/19 09:27:18;;;;;;;3.85;1.40;;;21.50;43.40;;;;;;5056169;28;20024;-49
2023/02/19 09:29:44;;;;;;;3.00;1.45;;;21.50;43.40;;;;;;5057969;28;20016;-58
2023/02/19 09:32:11;;;;;;;3.05;1.23;;;21.50;43.50;;;;;;5061481;28;20033;-51
2023/02/19 09:34:37;;;;;;;3.58;1.17;;;21.50;43.50;;;;;;5061558;28;20037;-54
2023/02/19 09:37:04;;;;;;;2.17;1.02;;;21.50;43.50;;;;;;5063033;28;20119;-55
2023/02/19 09:39:31;;;;;;;1.20;0.80;;;21.50;43.40;;;;;;5058403;28;20033;-50
2023/02/19 09:42:00;;;;;;;2.80;1.10;;;21.50;43.30;;;;;;5061106;28;20021;-48
2023/02/19 09:44:38;;;;;;;2.50;1.13;;;21.50;43.20;;;;;;5050213;28;20115;-52
2023/02/19 09:47:12;;;;;;;2.95;1.20;;;21.50;43.20;;;;;;5055468;28;20063;-48
2023/02/19 09:49:48;;;;;;;2.40;1.00;;;21.50;43.20;;;;;;5052962;28;20139;-53
2023/02/19 09:52:38;;;;;;;10.23;3.42;;;21.50;43.20;;;;;;5061854;28;20112;-50
2023/02/19 09:55:16;;;;;;;12.98;6.03;;;21.60;43.60;;;;;;5022544;28;20129;-54
2023/02/19 09:57:43;;;;;;;14.52;6.75;;;21.60;44.60;;;;;;5055745;28;20025;-54
2023/02/19 10:00:21;;;;;;;14.02;6.47;;;21.60;45.60;;;;;;5056448;28;20167;-57
2023/02/19 10:02:53;;;;;;;12.48;5.97;;;21.60;46.40;;;;;;5057689;28;20024;-53
2023/02/19 10:05:22;;;;;;;12.23;5.47;;;21.70;46.60;;;;;;5053991;28;20029;-51
2023/02/19 10:07:52;;;;;;;11.23;5.18;;;21.70;47.00;;;;;;5059873;28;20094;-48
2023/02/19 10:10:29;;;;;;;11.75;5.80;;;21.70;47.50;;;;;;5059919;28;20035;-53
2023/02/19 10:13:09;;;;;;;18.95;7.95;;;21.70;48.00;;;;;;5057825;28;20081;-54
2023/02/19 10:15:45;;;;;;;22.00;8.25;;;21.70;48.40;;;;;;5060106;28;20028;-53
2023/02/19 10:18:16;;;;;;;21.10;9.13;;;21.70;49.00;;;;;;5062059;28;20024;-55
2023/02/19 10:20:42;;;;;;;22.45;9.13;;;21.80;49.60;;;;;;5058426;28;20394;-53
2023/02/19 10:23:11;;;;;;;17.35;7.55;;;21.80;50.00;;;;;;5061260;28;20029;-52
2023/02/19 10:25:43;;;;;;;21.02;8.35;;;21.80;50.30;;;;;;5058489;28;20064;-57
2023/02/19 10:28:14;;;;;;;16.05;8.35;;;21.80;50.50;;;;;;5054067;28;20021;-48
2023/02/19 10:30:40;;;;;;;17.33;7.38;;;21.80;50.60;;;;;;5057606;28;20029;-52
2023/02/19 10:33:11;;;;;;;14.07;6.25;;;21.80;50.50;;;;;;5060026;28;20025;-52
2023/02/19 10:35:54;;;;;;;14.88;6.35;;;21.80;50.00;;;;;;5053601;28;20033;-56
2023/02/19 10:38:36;;;;;;;11.32;5.38;;;21.80;49.40;;;;;;5050351;28;20135;-58
2023/02/19 10:41:04;;;;;;;6.20;3.08;;;21.80;48.90;;;;;;5056765;28;20064;-60
2023/02/19 10:43:34;;;;;;;5.32;2.80;;;21.80;48.10;;;;;;5051531;28;20037;-53
2023/02/19 10:46:07;;;;;;;4.65;1.90;;;21.70;47.80;;;;;;5051117;28;20052;-51
2023/02/19 10:48:39;;;;;;;5.28;1.83;;;21.60;47.20;;;;;;5051401;28;20071;-54
2023/02/19 10:51:20;;;;;;;3.75;1.70;;;21.60;46.60;;;;;;5053373;28;20025;-55
2023/02/19 10:54:03;;;;;;;4.82;1.90;;;21.60;46.60;;;;;;5052807;28;20041;-58
2023/02/19 10:56:30;;;;;;;3.22;1.70;;;21.60;46.70;;;;;;5051681;28;20117;-57
2023/02/19 10:59:22;;;;;;;5.28;1.65;;;21.60;46.70;;;;;;5031944;28;20104;-56
2023/02/19 11:01:58;;;;;;;5.03;2.15;;;21.60;46.60;;;;;;5051540;28;20033;-55
2023/02/19 11:04:26;;;;;;;4.05;2.08;;;21.70;46.60;;;;;;5054122;28;20060;-53
2023/02/19 11:06:52;;;;;;;4.90;2.13;;;21.70;46.60;;;;;;5058929;28;20190;-49
2023/02/19 11:09:37;;;;;;;9.38;2.40;;;21.70;46.60;;;;;;5060741;28;20039;-56
2023/02/19 11:12:04;;;;;;;5.82;2.20;;;21.70;46.50;;;;;;5058589;28;20028;-56
2023/02/19 11:14:32;;;;;;;3.97;2.00;;;21.70;46.50;;;;;;5054207;28;20048;-55
2023/02/19 11:17:02;;;;;;;5.05;2.17;;;21.80;46.50;;;;;;5061261;28;20123;-49
2023/02/19 11:19:43;;;;;;;3.50;1.90;;;21.80;46.40;;;;;;5043064;28;20509;-52
2023/02/19 11:22:36;;;;;;;5.07;2.00;;;21.80;46.20;;;;;;5058152;28;20218;-52
2023/02/19 11:25:11;;;;;;;4.63;2.30;;;21.80;45.90;;;;;;5054415;28;20029;-54
2023/02/19 11:27:53;;;;;;;5.22;1.90;;;21.80;45.80;;;;;;5059526;28;20032;-56
2023/02/19 11:30:32;;;;;;;18.45;2.20;;;21.90;45.70;;;;;;5054745;28;20033;-53
2023/02/19 11:33:19;;;;;;;5.13;2.00;;;21.80;45.60;;;;;;5056717;28;20100;-55
2023/02/19 11:35:59;;;;;;;3.63;1.85;;;21.80;45.60;;;;;;5055651;28;20025;-55
2023/02/19 11:38:24;;;;;;;3.80;1.92;;;21.90;45.60;;;;;;5058342;28;20345;-55
2023/02/19 11:41:12;;;;;;;2.90;1.80;;;21.90;45.60;;;;;;5052839;28;20033;-56
2023/02/19 11:43:50;;;;;;;4.97;2.05;;;21.90;45.50;;;;;;5055882;28;20482;-51
2023/02/19 11:46:23;;;;;;;3.03;1.63;;;21.90;45.50;;;;;;5054681;28;20021;-49
2023/02/19 11:49:04;;;;;;;4.72;2.00;;;22.00;45.50;;;;;;5055199;28;20025;-52
2023/02/19 11:51:58;;;;;;;3.78;1.90;;;22.00;45.40;;;;;;5054182;28;20025;-48
2023/02/19 11:54:49;;;;;;;3.73;1.80;;;22.00;45.20;;;;;;5007556;28;20095;-53
2023/02/19 11:57:21;;;;;;;4.10;1.75;;;22.00;45.00;;;;;;5054588;28;20025;-50
2023/02/19 12:00:07;;;;;;;5.93;1.88;;;22.00;44.80;;;;;;5047683;28;20140;-55
2023/02/19 12:02:39;;;;;;;7.05;2.22;;;22.00;44.70;;;;;;5052205;28;20045;-54
2023/02/19 12:05:25;;;;;;;34.28;5.68;;;22.10;44.80;;;;;;5053521;28;20126;-57
2023/02/19 12:08:15;;;;;;;41.30;6.63;;;22.10;44.80;;;;;;5057644;28;21537;-53
2023/02/19 12:10:50;;;;;;;78.07;12.70;;;22.10;44.90;;;;;;5051070;28;20104;-52
2023/02/19 12:13:58;;;;;;;83.15;13.73;;;22.10;45.00;;;;;;5049942;28;20176;-55
2023/02/19 12:17:08;;;;;;;76.15;11.73;;;22.20;45.00;;;;;;5021243;28;20471;-52
2023/02/19 12:19:56;;;;;;;65.45;10.55;;;22.20;45.00;;;;;;5010044;28;20036;-52
2023/02/19 12:22:59;;;;;;;64.22;11.63;;;22.20;45.10;;;;;;5057330;28;20083;-60
2023/02/19 12:25:41;;;;;;;55.58;9.68;;;22.20;44.90;;;;;;5059942;28;20134;-50
2023/02/19 12:28:44;;;;;;;51.65;8.25;;;22.20;44.90;;;;;;5058636;28;20040;-59
2023/02/19 12:31:33;;;;;;;30.83;6.88;;;22.20;44.80;;;;;;5056552;28;20128;-59
2023/02/19 12:34:30;;;;;;;30.33;5.53;;;22.20;44.70;;;;;;5061277;28;20051;-55
2023/02/19 12:37:16;;;;;;;20.40;4.40;;;22.20;44.70;;;;;;5048288;28;20036;-57
2023/02/19 12:40:13;;;;;;;19.50;3.55;;;22.30;44.70;;;;;;5062625;28;20039;-55
2023/02/19 12:42:57;;;;;;;15.60;3.20;;;22.30;44.60;;;;;;5063922;28;20024;-57
2023/02/19 12:46:06;;;;;;;14.75;3.30;;;22.40;44.40;;;;;;5048610;28;20099;-56
2023/02/19 12:49:42;;;;;;;13.00;2.50;;;22.50;44.20;;;;;;4981410;28;20042;-58
2023/02/19 12:52:30;;;;;;;15.10;2.80;;;22.70;44.00;;;;;;4928492;29;20047;-57
2023/02/19 12:55:04;;;;;;;11.30;2.40;;;22.90;43.70;;;;;;5002201;28;20041;-55
2023/02/19 12:57:33;;;;;;;7.53;2.20;;;23.00;43.40;;;;;;5038019;28;20044;-56
2023/02/19 13:00:30;;;;;;;6.75;1.90;;;23.10;43.20;;;;;;5060881;28;20430;-57
2023/02/19 13:03:11;;;;;;;6.07;1.70;;;23.20;42.90;;;;;;5051841;28;20175;-59
2023/02/19 13:05:45;;;;;;;9.73;2.08;;;23.40;42.70;;;;;;5061571;28;20032;-57
2023/02/19 13:08:33;;;;;;;8.65;1.80;;;23.50;42.40;;;;;;5061434;28;20043;-54
2023/02/19 13:11:04;;;;;;;10.98;1.90;;;23.60;42.10;;;;;;5061322;28;20170;-56
2023/02/19 13:14:08;;;;;;;8.95;1.98;;;23.70;42.00;;;;;;5064893;28;20131;-55
2023/02/19 13:16:38;;;;;;;10.55;1.85;;;23.90;41.80;;;;;;5064222;28;20036;-54
2023/02/19 13:19:04;;;;;;;7.00;1.75;;;24.00;41.70;;;;;;5064590;28;20027;-56
2023/02/19 13:24:37;;;;;;;7.97;1.60;;;24.10;41.30;;;;;;5064421;28;20086;-50
2023/02/19 13:27:34;;;;;;;6.43;1.65;;;24.20;41.00;;;;;;5063699;28;20673;-55
2023/02/19 13:30:17;;;;;;;5.13;1.60;;;24.30;40.90;;;;;;5065716;28;20028;-56
2023/02/19 13:33:17;;;;;;;4.05;1.30;;;24.40;41.30;;;;;;5042172;28;20043;-54
2023/02/19 13:36:09;;;;;;;6.13;1.50;;;24.40;40.50;;;;;;5063617;28;20029;-52